Time;durP1;ratioP1;P1;durP2;ratioP2;P2;SDS_P1;SDS_P2;PMS_P1;PMS_P2;Temp;Humidity;BMP_temperature;BMP_pressure;BME280_temperature;BME280_humidity;BME280_pressure;Samples;Min_cycle;Max_cycle;Signal;HPM_P1;HPM_P2
2022/02/01 00:00:24;;;;;;;29.03;13.43;;;;;;;4.21;74.91;100964.56;5080553;28;20888;-80
2022/02/01 00:02:55;;;;;;;21.70;14.00;;;;;;;3.74;76.14;100971.28;5080536;28;20410;-78
2022/02/01 00:05:30;;;;;;;28.17;14.20;;;;;;;3.93;76.02;100966.03;5080373;28;20412;-79
2022/02/01 00:08:11;;;;;;;23.40;12.80;;;;;;;3.61;77.25;100978.47;5080442;28;20470;-83
2022/02/01 00:13:17;;;;;;;22.33;12.50;;;;;;;3.83;77.03;100971.63;5063445;28;20494;-80
2022/02/01 00:20:51;;;;;;;27.87;14.30;;;;;;;3.68;78.07;100975.34;5080097;28;20173;-79
2022/02/01 00:37:02;;;;;;;23.33;11.67;;;;;;;3.60;79.10;100961.28;4999379;28;20463;-74
2022/02/01 00:39:31;;;;;;;21.90;11.80;;;;;;;3.61;79.73;100959.56;5039392;28;20443;-78
2022/02/01 00:41:57;;;;;;;29.87;12.97;;;;;;;4.10;78.74;100958.97;5050569;28;20421;-78
2022/02/01 00:44:22;;;;;;;22.10;12.00;;;;;;;4.04;78.86;100962.16;5059531;28;20455;-76
2022/02/01 00:46:48;;;;;;;21.20;12.13;;;;;;;4.63;77.49;100958.41;5059285;28;20731;-78
2022/02/01 00:49:14;;;;;;;25.90;13.23;;;;;;;4.40;77.71;100958.41;5059137;28;20224;-75
2022/02/01 00:51:39;;;;;;;18.80;12.63;;;;;;;4.65;76.76;100954.16;5059641;28;20216;-78
2022/02/01 00:54:05;;;;;;;25.47;14.43;;;;;;;4.59;77.91;100949.66;5059197;28;20424;-75
2022/02/01 00:56:31;;;;;;;9.60;7.00;;;;;;;9.55;84.73;100929.38;5059325;28;20255;-68
2022/02/01 00:58:56;;;;;;;17.17;9.30;;;;;;;12.89;57.21;100926.63;5059165;28;20170;-70
2022/02/01 01:01:21;;;;;;;16.27;10.40;;;;;;;9.13;58.78;100950.28;5059017;28;20268;-74
2022/02/01 01:03:47;;;;;;;12.37;8.57;;;;;;;6.47;68.21;100964.53;5058977;28;20192;-75
2022/02/01 01:06:13;;;;;;;16.27;8.50;;;;;;;5.61;71.68;100966.13;5059975;28;20173;-75
2022/02/01 01:08:40;;;;;;;9.13;7.10;;;;;;;5.27;73.86;100967.56;5058797;28;20475;-75
2022/02/01 01:11:06;;;;;;;8.03;6.70;;;;;;;5.35;73.63;100970.44;5058871;28;20418;-75
2022/02/01 01:54:21;;;;;;;8.33;4.63;;;;;;;5.33;73.36;100946.22;4987269;28;20512;-74
2022/02/01 01:56:47;;;;;;;6.53;4.10;;;;;;;5.08;74.21;100949.69;5058227;28;20411;-74
2022/02/01 01:59:13;;;;;;;9.03;4.97;;;;;;;4.95;74.48;100951.84;5058349;28;20781;-75
2022/02/01 02:01:40;;;;;;;12.13;4.50;;;;;;;5.37;72.73;100945.50;5058106;28;20425;-75
2022/02/01 02:04:06;;;;;;;10.77;4.97;;;;;;;5.01;74.39;100943.41;5062870;28;20427;-75
2022/02/01 02:06:31;;;;;;;9.00;4.20;;;;;;;4.75;75.05;100945.03;5058244;28;20408;-76
2022/02/01 02:08:57;;;;;;;13.30;4.87;;;;;;;4.94;74.41;100938.84;5057938;28;20472;-74
2022/02/01 02:11:47;;;;;;;10.43;4.20;;;;;;;4.74;74.36;100928.69;5058440;28;20215;-75
2022/02/01 02:14:20;;;;;;;9.77;4.00;;;;;;;4.82;74.11;100926.38;5060161;28;20338;-75
2022/02/01 02:16:57;;;;;;;8.43;4.13;;;;;;;5.01;74.20;100917.56;5064905;28;20416;-74
2022/02/01 02:19:25;;;;;;;5.63;3.40;;;;;;;4.79;74.07;100910.75;5064686;28;20411;-74
2022/02/01 02:22:03;;;;;;;9.00;3.70;;;;;;;5.01;73.91;100907.25;5068856;28;20431;-74
2022/02/01 02:24:31;;;;;;;7.23;4.00;;;;;;;4.68;74.75;100924.16;5074558;28;20445;-75
2022/02/01 02:26:58;;;;;;;9.23;4.00;;;;;;;4.61;75.22;100922.16;5072610;28;20442;-76
2022/02/01 02:29:24;;;;;;;10.07;3.60;;;;;;;4.49;76.24;100924.31;5069281;28;20463;-74
2022/02/01 02:31:49;;;;;;;8.00;3.70;;;;;;;4.33;77.40;100920.25;5064696;28;20431;-74
2022/02/01 02:34:16;;;;;;;10.00;3.70;;;;;;;4.37;77.00;100911.81;5064717;28;20321;-75
2022/02/01 02:36:51;;;;;;;8.20;3.57;;;;;;;4.27;78.47;100920.91;5064651;28;20264;-74
2022/02/01 02:42:15;;;;;;;14.73;3.83;;;;;;;4.19;79.59;100933.53;5051410;28;20487;-74
2022/02/01 02:47:27;;;;;;;10.17;3.87;;;;;;;4.33;79.44;100921.16;5064814;28;20686;-75
2022/02/01 02:49:53;;;;;;;9.13;3.80;;;;;;;4.54;77.54;100915.03;5064397;28;20459;-74
2022/02/01 02:52:19;;;;;;;7.00;3.20;;;;;;;3.97;79.66;100918.91;5064263;28;20407;-76
2022/02/01 02:54:44;;;;;;;8.33;3.53;;;;;;;4.47;78.61;100923.38;5064142;28;20550;-75
2022/02/01 02:57:09;;;;;;;11.30;4.50;;;;;;;4.42;77.68;100923.19;5064704;28;20228;-75
2022/02/01 02:59:36;;;;;;;8.23;3.70;;;;;;;4.04;79.07;100920.91;5064276;28;20174;-74
2022/02/01 03:02:03;;;;;;;9.10;3.50;;;;;;;4.44;78.55;100931.00;5063956;28;20559;-76
2022/02/01 03:04:31;;;;;;;9.10;4.13;;;;;;;4.31;79.23;100932.25;5047139;28;20693;-76
2022/02/01 03:06:57;;;;;;;10.70;4.00;;;;;;;4.35;78.83;100923.78;5064107;28;20477;-75
2022/02/01 03:09:24;;;;;;;10.37;4.13;;;;;;;4.80;76.09;100926.28;5063972;28;20521;-73
2022/02/01 03:11:56;;;;;;;10.03;3.87;;;;;;;5.00;76.34;100934.75;5064622;28;20412;-73
2022/02/01 03:17:13;;;;;;;7.07;3.00;;;;;;;4.11;78.70;100921.16;5064108;28;20425;-74
2022/02/01 03:19:56;;;;;;;11.77;4.27;;;;;;;4.71;76.02;100908.78;5064058;28;20427;-74
2022/02/01 03:22:24;;;;;;;17.20;4.00;;;;;;;4.98;74.18;100902.84;5063846;28;20415;-73
2022/02/01 03:24:50;;;;;;;11.03;3.57;;;;;;;5.35;72.58;100913.56;5063898;28;20865;-75
2022/02/01 03:27:16;;;;;;;9.40;4.20;;;;;;;4.95;73.66;100912.19;5059625;28;20473;-76
2022/02/01 03:29:41;;;;;;;19.50;3.97;;;;;;;4.94;72.79;100915.59;5061163;28;20452;-76
2022/02/01 03:32:07;;;;;;;10.13;3.90;;;;;;;4.80;71.93;100903.06;5043419;28;20227;-74
2022/02/01 03:34:32;;;;;;;13.50;3.87;;;;;;;4.84;71.81;100904.06;5060244;28;20228;-75
2022/02/01 03:36:58;;;;;;;6.00;3.27;;;;;;;4.98;71.95;100908.00;5044171;28;20223;-75
2022/02/01 03:39:23;;;;;;;13.03;4.03;;;;;;;4.71;72.65;100911.38;5060856;28;20236;-74
2022/02/01 03:41:51;;;;;;;10.33;3.67;;;;;;;4.95;71.51;100918.25;5060749;28;20188;-76
2022/02/01 03:44:16;;;;;;;10.53;3.73;;;;;;;4.93;71.88;100904.38;5043355;28;20201;-75
2022/02/01 03:46:47;;;;;;;19.57;4.30;;;;;;;4.87;72.64;100899.88;5060409;28;20440;-75
2022/02/01 03:49:13;;;;;;;12.03;4.20;;;;;;;4.37;73.46;100897.22;5060336;28;20511;-75
2022/02/01 03:51:38;;;;;;;6.60;3.70;;;;;;;4.58;72.60;100905.69;5061082;28;20499;-74
2022/02/01 03:54:03;;;;;;;9.30;3.77;;;;;;;4.61;73.63;100906.69;5060406;28;20166;-74
2022/02/01 03:56:28;;;;;;;14.27;4.00;;;;;;;4.79;73.11;100888.41;5060395;28;20435;-74
2022/02/01 03:58:54;;;;;;;14.87;4.10;;;;;;;4.40;74.33;100880.97;5060843;28;20177;-74
2022/02/01 04:01:19;;;;;;;14.17;4.17;;;;;;;4.74;74.18;100881.31;5060267;28;20535;-74
2022/02/01 04:03:44;;;;;;;18.10;4.07;;;;;;;4.81;73.06;100878.13;5060017;28;20173;-74
2022/02/01 04:06:10;;;;;;;11.60;3.80;;;;;;;4.67;73.19;100886.25;5060837;28;20177;-74
2022/02/01 04:08:35;;;;;;;10.83;3.90;;;;;;;4.41;73.03;100882.75;5060148;28;20229;-73
2022/02/01 04:11:00;;;;;;;13.20;4.37;;;;;;;4.70;72.74;100880.31;5059878;28;20212;-73
2022/02/01 04:13:25;;;;;;;12.83;3.97;;;;;;;4.41;73.09;100871.50;5060097;28;20174;-73
2022/02/01 04:15:51;;;;;;;8.37;3.77;;;;;;;4.40;73.00;100865.47;5059825;28;20211;-73
2022/02/01 04:18:17;;;;;;;6.33;3.77;;;;;;;4.70;72.16;100870.00;5059792;28;20184;-73
2022/02/01 04:20:43;;;;;;;8.10;4.00;;;;;;;4.45;73.50;100865.63;5060345;28;20189;-74
2022/02/01 04:23:08;;;;;;;14.73;4.20;;;;;;;4.58;72.21;100869.56;5059668;28;20177;-73
2022/02/01 04:25:33;;;;;;;13.50;4.07;;;;;;;4.47;72.28;100858.84;5059807;28;20824;-73
2022/02/01 04:27:59;;;;;;;11.77;3.70;;;;;;;4.66;73.24;100856.09;5042924;28;20235;-73
2022/02/01 04:30:24;;;;;;;12.23;3.80;;;;;;;4.46;73.73;100864.81;5059743;28;20173;-74
2022/02/01 04:32:52;;;;;;;12.90;5.20;;;;;;;4.91;72.84;100872.44;5059504;28;20503;-74
2022/02/01 04:35:22;;;;;;;9.60;3.87;;;;;;;4.36;73.64;100879.97;5059481;28;20272;-76
2022/02/01 04:37:48;;;;;;;18.20;7.77;;;;;;;4.70;72.64;100873.44;5041982;28;20427;-75
2022/02/01 04:40:16;;;;;;;9.30;3.77;;;;;;;4.81;72.27;100866.06;5042304;28;20416;-75
2022/02/01 04:42:43;;;;;;;13.97;3.90;;;;;;;4.55;72.57;100857.41;5059549;28;20177;-74
2022/02/01 04:45:15;;;;;;;13.07;4.30;;;;;;;4.25;74.23;100864.91;5059307;28;20458;-75
2022/02/01 04:47:41;;;;;;;14.33;4.27;;;;;;;4.21;74.67;100864.78;5042197;28;20415;-75
2022/02/01 04:50:13;;;;;;;9.37;4.00;;;;;;;4.37;73.48;100860.19;5059456;28;20810;-76
2022/02/01 04:52:40;;;;;;;14.00;4.23;;;;;;;4.81;72.90;100868.66;5059840;28;20786;-75
2022/02/01 04:55:06;;;;;;;6.83;3.70;;;;;;;4.88;72.78;100877.50;5059115;28;20466;-76
2022/02/01 04:57:31;;;;;;;14.23;3.60;;;;;;;4.85;72.36;100880.84;5059067;28;20412;-75
2022/02/01 04:59:56;;;;;;;12.87;4.20;;;;;;;4.53;74.93;100887.44;5059488;28;20257;-76
2022/02/01 05:02:22;;;;;;;9.90;3.73;;;;;;;4.81;72.80;100876.41;5059109;28;20205;-75
2022/02/01 05:04:47;;;;;;;8.07;3.40;;;;;;;4.56;73.28;100872.09;5059035;28;20188;-76
2022/02/01 05:07:12;;;;;;;8.40;3.60;;;;;;;4.08;74.43;100872.03;5059582;28;20170;-75
2022/02/01 05:09:38;;;;;;;8.87;4.20;;;;;;;4.43;73.57;100881.06;5060597;28;20603;-74
2022/02/01 05:12:07;;;;;;;14.50;4.03;;;;;;;4.50;73.44;100892.50;5058985;28;20227;-75
2022/02/01 05:14:32;;;;;;;11.57;3.90;;;;;;;4.67;73.27;100891.41;5059061;28;20165;-75
2022/02/01 05:16:59;;;;;;;11.00;4.07;;;;;;;4.31;74.38;100888.38;5059146;28;20424;-75
2022/02/01 05:21:57;;;;;;;10.13;3.90;;;;;;;4.64;74.80;100893.00;5049620;28;20408;-75
2022/02/01 05:24:24;;;;;;;10.30;3.60;;;;;;;4.44;74.52;100892.25;5067175;28;20889;-74
2022/02/01 05:26:50;;;;;;;17.87;4.23;;;;;;;4.67;73.01;100890.56;5066038;28;20442;-74
2022/02/01 05:29:18;;;;;;;11.43;4.03;;;;;;;4.56;73.90;100887.59;5059617;28;20447;-74
2022/02/01 05:31:44;;;;;;;11.27;3.90;;;;;;;4.53;74.18;100888.34;5058963;28;20180;-75
2022/02/01 05:34:09;;;;;;;11.20;4.30;;;;;;;4.67;73.07;100885.38;5058329;28;20416;-74
2022/02/01 05:36:35;;;;;;;15.33;4.73;;;;;;;4.88;72.74;100885.25;5059094;28;20404;-76
2022/02/01 05:39:14;;;;;;;11.40;4.20;;;;;;;4.62;73.01;100877.47;5058763;28;20181;-75
2022/02/01 05:41:39;;;;;;;8.20;4.20;;;;;;;4.76;73.51;100869.31;5058671;28;20589;-75
2022/02/01 05:44:04;;;;;;;14.63;6.53;;;;;;;4.47;74.54;100854.53;5058106;28;20530;-75
2022/02/01 05:46:30;;;;;;;12.77;5.97;;;;;;;4.25;75.75;100847.72;5058065;28;20252;-76
2022/02/01 05:48:56;;;;;;;13.20;5.60;;;;;;;4.48;74.80;100845.97;5058900;28;20189;-75
2022/02/01 05:51:23;;;;;;;11.43;4.97;;;;;;;4.56;74.94;100851.44;5058258;28;20177;-76
2022/02/01 05:53:48;;;;;;;14.60;4.53;;;;;;;4.22;76.34;100850.19;5058207;28;20208;-77
2022/02/01 05:56:13;;;;;;;13.20;4.47;;;;;;;4.71;74.96;100851.09;5058674;28;20445;-77
2022/02/01 05:58:39;;;;;;;14.30;4.30;;;;;;;4.41;74.37;100845.69;5058113;28;20197;-77
2022/02/01 06:01:04;;;;;;;16.10;4.20;;;;;;;4.86;73.74;100837.84;5058277;28;20181;-75
2022/02/01 06:03:29;;;;;;;12.57;3.90;;;;;;;4.74;74.32;100825.38;5058442;28;20253;-75
2022/02/01 06:05:55;;;;;;;13.03;4.43;;;;;;;4.80;73.97;100825.56;5057954;28;20268;-75
2022/02/01 06:08:20;;;;;;;10.47;5.20;;;;;;;4.35;76.46;100821.41;5057913;28;20197;-77
2022/02/01 06:10:46;;;;;;;9.20;4.97;;;;;;;4.48;76.06;100824.44;5058166;28;20212;-76
2022/02/01 06:13:11;;;;;;;17.03;4.40;;;;;;;4.49;76.30;100829.69;5057652;28;20592;-75
2022/02/01 06:15:38;;;;;;;11.87;4.17;;;;;;;4.42;76.64;100821.66;5057916;28;20545;-75
2022/02/01 06:18:03;;;;;;;12.43;4.50;;;;;;;4.24;76.67;100820.16;5058411;28;20252;-76
2022/02/01 06:20:29;;;;;;;12.90;4.23;;;;;;;4.36;77.05;100819.72;5040471;28;20523;-75
2022/02/01 06:22:54;;;;;;;9.50;3.53;;;;;;;4.16;77.35;100817.28;5057679;28;20181;-75
2022/02/01 06:25:33;;;;;;;11.43;4.10;;;;;;;4.49;76.17;100813.28;5058535;28;20175;-76
2022/02/01 06:27:58;;;;;;;9.90;3.73;;;;;;;4.53;75.83;100815.16;5057907;28;20169;-75
2022/02/01 06:30:24;;;;;;;8.03;3.70;;;;;;;4.48;77.66;100815.00;5040567;28;20851;-76
2022/02/01 06:32:49;;;;;;;10.07;4.43;;;;;;;4.72;75.78;100815.00;5057816;28;20235;-75
2022/02/01 06:35:14;;;;;;;12.60;3.70;;;;;;;4.52;75.00;100818.59;5057324;28;20282;-76
2022/02/01 06:37:40;;;;;;;11.00;3.60;;;;;;;4.14;77.18;100837.00;5058401;28;20219;-75
2022/02/01 06:40:05;;;;;;;8.17;3.33;;;;;;;4.28;76.13;100827.19;5057789;28;20184;-77
2022/02/01 06:42:34;;;;;;;10.90;3.50;;;;;;;4.18;76.94;100827.66;5057801;28;20166;-76
2022/02/01 06:45:01;;;;;;;8.00;4.03;;;;;;;4.48;76.07;100824.44;5058009;28;20261;-75
2022/02/01 06:47:26;;;;;;;8.73;4.47;;;;;;;4.55;75.24;100811.81;5057682;28;20412;-76
2022/02/01 06:49:51;;;;;;;8.07;3.13;;;;;;;4.42;76.74;100819.06;5057904;28;20521;-75
2022/02/01 06:52:17;;;;;;;12.23;3.53;;;;;;;4.54;75.75;100810.03;5058301;28;20325;-75
2022/02/01 06:54:42;;;;;;;13.97;3.67;;;;;;;4.42;75.88;100811.31;5057464;28;20182;-74
2022/02/01 06:57:07;;;;;;;15.97;3.90;;;;;;;4.47;74.82;100802.91;5057725;28;20192;-74
2022/02/01 06:59:33;;;;;;;6.67;3.20;;;;;;;4.13;76.69;100793.09;5057934;28;20162;-75
2022/02/01 07:01:58;;;;;;;10.03;3.30;;;;;;;4.18;76.36;100779.53;5061023;28;20558;-75
2022/02/01 07:04:23;;;;;;;12.50;4.13;;;;;;;4.61;75.77;100762.06;5061110;28;20174;-75
2022/02/01 07:06:49;;;;;;;11.83;3.90;;;;;;;4.08;76.58;100758.50;5061883;28;20174;-74
2022/02/01 07:09:15;;;;;;;9.33;3.73;;;;;;;4.72;75.54;100745.25;5061769;28;20220;-75
2022/02/01 07:11:41;;;;;;;11.07;3.60;;;;;;;4.79;75.56;100750.63;5061356;28;20496;-74
2022/02/01 07:14:06;;;;;;;16.53;4.30;;;;;;;4.67;75.79;100746.81;5061497;28;20408;-75
2022/02/01 07:16:32;;;;;;;7.23;3.50;;;;;;;4.43;77.28;100751.13;5061176;28;20184;-75
2022/02/01 07:18:57;;;;;;;8.17;3.40;;;;;;;4.50;76.02;100750.50;5043963;28;20173;-75
2022/02/01 07:21:25;;;;;;;10.03;4.10;;;;;;;4.35;77.78;100758.59;5061683;28;20483;-75
2022/02/01 07:23:51;;;;;;;11.47;3.50;;;;;;;4.02;78.65;100765.19;5060911;28;20605;-75
2022/02/01 07:26:19;;;;;;;9.93;3.90;;;;;;;4.49;77.44;100759.06;5060920;28;20502;-77
2022/02/01 07:28:45;;;;;;;7.70;3.40;;;;;;;4.36;78.48;100760.38;5043736;28;20201;-75
2022/02/01 07:31:10;;;;;;;11.43;4.13;;;;;;;4.58;77.26;100755.94;5060692;28;20506;-75
2022/02/01 07:33:36;;;;;;;10.13;3.97;;;;;;;4.71;76.13;100750.38;5060496;28;20436;-77
2022/02/01 07:36:01;;;;;;;14.13;4.23;;;;;;;4.46;77.29;100739.19;5061447;28;20224;-75
2022/02/01 07:38:27;;;;;;;10.33;4.20;;;;;;;5.11;76.47;100724.97;5080698;28;20173;-75
2022/02/01 07:40:54;;;;;;;7.77;4.10;;;;;;;4.09;77.92;100704.38;5081011;28;20177;-76
2022/02/01 07:43:22;;;;;;;11.53;4.40;;;;;;;4.55;77.22;100699.91;5080196;28;20187;-76
2022/02/01 07:45:49;;;;;;;8.47;4.23;;;;;;;4.38;79.10;100702.81;5080714;28;20884;-75
2022/02/01 07:48:15;;;;;;;10.03;4.43;;;;;;;4.77;77.44;100703.22;5080805;28;20443;-74
2022/02/01 07:50:42;;;;;;;10.33;3.97;;;;;;;4.65;77.36;100701.97;5080458;28;20423;-76
2022/02/01 07:53:07;;;;;;;11.40;4.30;;;;;;;4.57;78.03;100698.25;5080410;28;20506;-76
2022/02/01 07:55:33;;;;;;;11.00;4.17;;;;;;;4.79;76.65;100693.78;5046592;28;20438;-75
2022/02/01 07:57:59;;;;;;;11.20;3.87;;;;;;;4.83;76.90;100695.66;5080253;28;20172;-75
2022/02/01 08:00:24;;;;;;;8.90;4.20;;;;;;;4.92;77.37;100695.94;5080144;28;20431;-75
2022/02/01 08:02:54;;;;;;;7.70;4.17;;;;;;;4.77;76.97;100686.00;5080959;28;20157;-76
2022/02/01 08:05:21;;;;;;;13.37;5.10;;;;;;;4.83;76.89;100669.81;5079061;28;20280;-76
2022/02/01 08:07:46;;;;;;;13.13;4.97;;;;;;;4.68;77.73;100659.88;5080039;28;20472;-80
2022/02/01 08:10:14;;;;;;;9.53;3.73;;;;;;;4.67;77.95;100647.81;5080357;28;20454;-77
2022/02/01 08:13:23;;;;;;;8.20;4.40;;;;;;;5.00;76.30;100636.78;5079328;28;20406;-77
2022/02/01 08:23:34;;;;;;;6.70;3.37;;;;;;;5.03;76.09;100621.34;5075616;28;20443;-78
2022/02/01 08:25:59;;;;;;;12.07;3.90;;;;;;;5.57;75.46;100622.91;5088896;28;20685;-77
2022/02/01 08:28:25;;;;;;;9.63;4.40;;;;;;;5.38;75.83;100624.09;5081259;28;20454;-79
2022/02/01 08:30:54;;;;;;;4.80;3.30;;;;;;;5.21;76.35;100626.22;5080328;28;20256;-77
2022/02/01 08:33:20;;;;;;;9.57;3.80;;;;;;;4.80;76.98;100610.31;5080697;28;20256;-76
2022/02/01 08:35:45;;;;;;;10.27;5.37;;;;;;;5.08;76.57;100593.97;5080010;28;20719;-79
2022/02/01 08:38:11;;;;;;;7.30;3.87;;;;;;;4.98;77.22;100586.75;5080118;28;20231;-79
2022/02/01 08:40:36;;;;;;;9.03;3.60;;;;;;;5.07;77.07;100589.63;5080385;28;20541;-79
2022/02/01 08:43:02;;;;;;;11.33;3.80;;;;;;;5.17;77.33;100573.56;5079620;28;20186;-78
2022/02/01 08:45:28;;;;;;;8.37;3.40;;;;;;;4.94;77.18;100580.63;5079743;28;20177;-77
2022/02/01 08:47:56;;;;;;;7.70;3.60;;;;;;;4.86;77.61;100572.66;5080191;28;20490;-75
2022/02/01 08:50:29;;;;;;;9.70;4.50;;;;;;;4.82;77.79;100560.47;5079537;28;20185;-76
2022/02/01 08:52:59;;;;;;;10.20;4.40;;;;;;;5.11;76.30;100549.25;5079386;28;20443;-78
2022/02/01 08:55:36;;;;;;;10.40;4.20;;;;;;;5.54;76.12;100547.84;5079552;28;20419;-83
2022/02/01 08:58:02;;;;;;;8.57;3.60;;;;;;;5.11;76.96;100536.31;5079510;28;20422;-76
2022/02/01 09:00:29;;;;;;;7.97;4.50;;;;;;;5.28;75.71;100519.59;5079241;28;20661;-76
2022/02/01 09:02:56;;;;;;;11.63;4.20;;;;;;;5.18;76.80;100517.56;5079035;28;20256;-76
2022/02/01 09:05:22;;;;;;;8.93;4.00;;;;;;;5.14;76.47;100511.47;5079665;28;20763;-76
2022/02/01 09:07:47;;;;;;;10.97;4.60;;;;;;;5.58;75.11;100505.72;5079322;28;20422;-76
2022/02/01 09:10:13;;;;;;;11.63;4.70;;;;;;;5.30;76.38;100499.81;5078792;28;20651;-77
2022/02/01 09:12:38;;;;;;;9.50;4.90;;;;;;;5.44;75.40;100486.38;5079578;28;20511;-78
2022/02/01 09:15:03;;;;;;;7.40;4.60;;;;;;;5.15;76.00;100483.91;5078943;28;20440;-80
2022/02/01 09:17:29;;;;;;;10.77;4.20;;;;;;;4.80;77.65;100466.56;5078972;28;20181;-79
2022/02/01 09:19:54;;;;;;;8.83;4.30;;;;;;;5.16;76.52;100464.97;5082209;28;20161;-80
2022/02/01 09:22:19;;;;;;;8.93;4.03;;;;;;;5.59;75.23;100453.19;5079023;28;20173;-77
2022/02/01 09:24:45;;;;;;;12.13;4.50;;;;;;;5.29;75.64;100448.06;5077817;28;20177;-78
2022/02/01 09:27:13;;;;;;;9.27;4.63;;;;;;;5.31;75.66;100446.44;5079302;28;20169;-79
2022/02/01 09:29:39;;;;;;;6.77;4.00;;;;;;;5.23;76.14;100435.88;5078773;28;20213;-75
2022/02/01 09:32:05;;;;;;;8.00;4.23;;;;;;;5.29;76.08;100420.53;5078940;28;20828;-78
2022/02/01 09:34:31;;;;;;;7.60;4.43;;;;;;;5.15;75.42;100414.13;5078649;28;20255;-78
2022/02/01 09:36:57;;;;;;;13.67;5.43;;;;;;;5.45;74.89;100403.69;5078821;28;20792;-79
2022/02/01 09:39:24;;;;;;;12.83;5.70;;;;;;;5.44;75.00;100386.44;5078640;28;20425;-77
2022/02/01 09:41:50;;;;;;;18.10;7.27;;;;;;;5.15;75.97;100389.16;5078498;28;20422;-80
2022/02/01 09:44:16;;;;;;;9.37;6.40;;;;;;;5.09;76.58;100385.53;5078448;28;20718;-78
2022/02/01 09:46:43;;;;;;;12.03;6.13;;;;;;;4.97;76.81;100386.09;5078978;28;20464;-79
2022/02/01 09:49:10;;;;;;;13.33;6.70;;;;;;;5.04;77.12;100378.53;5078396;28;20459;-78
2022/02/01 09:51:35;;;;;;;12.73;6.60;;;;;;;5.46;76.45;100369.25;5078430;28;20426;-76
2022/02/01 09:54:01;;;;;;;11.37;7.70;;;;;;;5.10;77.64;100371.78;5078541;28;20786;-77
2022/02/01 09:56:26;;;;;;;8.77;6.33;;;;;;;4.59;80.00;100350.66;5078323;28;20172;-78
2022/02/01 09:58:55;;;;;;;12.30;6.63;;;;;;;4.76;79.10;100348.50;5078502;28;20176;-79
2022/02/01 10:01:28;;;;;;;10.37;7.30;;;;;;;4.92;79.93;100323.97;5078438;28;20251;-76
2022/02/01 10:04:07;;;;;;;10.73;7.70;;;;;;;4.61;81.09;100332.63;5078157;28;20447;-74
2022/02/01 10:06:34;;;;;;;11.47;7.67;;;;;;;4.87;80.87;100321.28;5078162;28;20799;-76
2022/02/01 10:09:11;;;;;;;10.70;7.30;;;;;;;5.37;80.36;100306.97;5060349;28;20545;-78
2022/02/01 10:11:40;;;;;;;12.50;8.80;;;;;;;5.21;79.45;100292.84;5058606;28;20427;-76
2022/02/01 10:14:08;;;;;;;12.30;7.37;;;;;;;4.90;80.83;100292.06;5057608;28;20677;-76
2022/02/01 10:16:48;;;;;;;13.47;8.27;;;;;;;4.60;82.43;100285.28;5057724;28;20633;-75
2022/02/01 10:19:13;;;;;;;9.30;6.40;;;;;;;4.69;82.40;100282.06;5057848;28;20420;-77
2022/02/01 10:22:00;;;;;;;13.07;7.83;;;;;;;4.80;81.86;100272.88;5057874;28;20424;-77
2022/02/01 10:24:35;;;;;;;14.73;7.57;;;;;;;4.54;82.58;100267.91;5057733;28;20185;-78
2022/02/01 10:27:10;;;;;;;8.47;7.00;;;;;;;5.01;81.91;100262.22;5057976;28;20431;-79
2022/02/01 10:29:39;;;;;;;13.83;6.40;;;;;;;4.36;83.58;100242.47;5057539;28;20463;-78
2022/02/01 10:32:27;;;;;;;9.63;6.80;;;;;;;4.97;82.65;100225.94;5057564;28;20420;-78
2022/02/01 10:34:54;;;;;;;9.87;7.50;;;;;;;5.12;81.88;100207.34;5057609;28;20533;-76
2022/02/01 10:37:25;;;;;;;16.70;6.97;;;;;;;4.91;81.57;100198.22;5061846;28;20420;-76
2022/02/01 10:39:58;;;;;;;20.43;8.10;;;;;;;4.93;81.94;100199.16;5061536;28;21754;-76
2022/02/01 10:42:25;;;;;;;8.10;6.23;;;;;;;5.10;81.15;100178.00;5061440;28;20419;-77
2022/02/01 10:44:55;;;;;;;11.83;6.43;;;;;;;4.53;82.80;100185.25;5061310;28;20444;-76
2022/02/01 10:47:34;;;;;;;10.97;7.30;;;;;;;4.83;83.30;100186.84;5061455;28;20668;-77
2022/02/01 10:50:10;;;;;;;7.23;5.70;;;;;;;4.70;83.51;100158.16;5061345;28;20474;-77
2022/02/01 10:52:44;;;;;;;7.20;6.53;;;;;;;5.01;83.08;100148.53;5062287;28;20801;-76
2022/02/01 10:55:10;;;;;;;8.83;6.63;;;;;;;5.16;83.07;100140.25;5061227;28;20511;-77
2022/02/01 10:57:36;;;;;;;7.40;6.50;;;;;;;5.04;82.86;100127.06;5061316;28;20408;-77
2022/02/01 11:00:04;;;;;;;10.67;6.70;;;;;;;5.16;81.79;100104.09;5061917;28;20412;-78
2022/02/01 11:02:29;;;;;;;7.90;6.57;;;;;;;4.83;84.18;100106.78;5061321;28;20425;-77
2022/02/01 11:04:56;;;;;;;8.10;6.33;;;;;;;4.84;84.19;100099.09;5043618;28;20453;-79
2022/02/01 11:07:21;;;;;;;9.30;6.90;;;;;;;5.13;82.84;100082.47;5044443;28;20571;-79
2022/02/01 11:09:46;;;;;;;8.07;5.50;;;;;;;4.62;84.28;100077.06;5061227;28;20472;-79
2022/02/01 11:12:12;;;;;;;9.57;6.40;;;;;;;5.16;83.53;100067.03;5043937;28;20181;-77
2022/02/01 11:14:43;;;;;;;8.67;6.40;;;;;;;4.98;84.31;100050.31;5061786;28;20178;-79
2022/02/01 11:17:39;;;;;;;9.30;6.17;;;;;;;5.12;83.87;100040.25;5066185;28;20423;-78
2022/02/01 11:20:05;;;;;;;6.73;5.17;;;;;;;5.00;84.59;100021.94;5077279;28;20416;-79
2022/02/01 11:22:36;;;;;;;7.03;5.90;;;;;;;4.98;84.66;100028.75;5058833;28;20424;-78
2022/02/01 11:25:23;;;;;;;8.90;5.70;;;;;;;4.61;88.25;100022.81;5050815;28;20177;-81
2022/02/01 11:28:31;;;;;;;10.83;5.97;;;;;;;4.94;86.04;100004.59;5045199;28;20677;-81
2022/02/01 11:30:52;;;;;;;5.97;5.37;;;;;;;5.11;86.13;99989.44;5060184;28;20452;-80
2022/02/01 11:33:18;;;;;;;6.53;5.60;;;;;;;4.83;85.05;99969.91;5061253;28;20412;-78
2022/02/01 11:35:44;;;;;;;6.30;5.27;;;;;;;4.95;86.72;99972.78;5043793;28;20466;-77
2022/02/01 11:38:15;;;;;;;6.17;5.37;;;;;;;4.88;86.61;99965.72;5061257;28;20412;-78
2022/02/01 11:40:46;;;;;;;6.10;5.60;;;;;;;5.06;86.41;99950.59;5061001;28;20210;-80
2022/02/01 11:43:13;;;;;;;5.87;5.30;;;;;;;5.04;86.60;99936.75;5060720;28;20499;-83
2022/02/01 11:45:54;;;;;;;7.00;6.30;;;;;;;5.27;86.39;99932.88;5060981;28;20433;-82
2022/02/01 11:48:22;;;;;;;6.33;5.47;;;;;;;5.03;86.30;99942.78;5042581;28;20435;-79
2022/02/01 11:50:53;;;;;;;7.17;5.60;;;;;;;4.89;87.68;99944.22;5061680;28;20420;-74
2022/02/01 11:53:23;;;;;;;6.43;5.83;;;;;;;5.21;86.97;99929.34;5060172;28;20455;-79
2022/02/01 11:55:50;;;;;;;8.20;6.40;;;;;;;5.08;87.67;99921.34;5060323;28;20419;-77
2022/02/01 11:58:30;;;;;;;7.20;6.43;;;;;;;5.04;87.65;99916.09;5042920;28;20424;-78
2022/02/01 12:00:56;;;;;;;8.37;7.40;;;;;;;5.29;88.24;99903.66;5060541;28;20454;-78
2022/02/01 12:03:26;;;;;;;7.70;6.90;;;;;;;5.00;89.04;99893.63;5061057;28;20412;-77
2022/02/01 12:05:58;;;;;;;6.47;5.87;;;;;;;5.10;89.26;99880.88;5060401;28;20549;-78
2022/02/01 12:08:28;;;;;;;8.23;7.43;;;;;;;5.27;88.41;99871.72;5060262;28;20471;-78
2022/02/01 12:10:57;;;;;;;7.23;6.57;;;;;;;5.33;89.49;99855.44;5060193;28;20432;-77
2022/02/01 12:13:24;;;;;;;8.53;7.73;;;;;;;5.25;89.19;99857.91;5059682;28;20425;-77
2022/02/01 12:15:56;;;;;;;8.17;7.37;;;;;;;5.48;89.02;99866.06;5046848;28;21261;-81
2022/02/01 12:18:41;;;;;;;9.50;8.60;;;;;;;5.29;89.54;99835.56;5061165;28;20420;-79
2022/02/01 12:21:25;;;;;;;8.60;7.80;;;;;;;5.63;88.66;99834.41;5044425;28;20502;-79
2022/02/01 12:23:52;;;;;;;8.50;7.60;;;;;;;5.57;88.76;99842.03;5059309;28;20416;-78
2022/02/01 12:26:19;;;;;;;7.93;6.73;;;;;;;5.54;89.10;99827.34;5059555;28;20415;-79
2022/02/01 12:28:45;;;;;;;9.80;8.17;;;;;;;5.50;89.64;99822.13;5059368;28;20474;-77
2022/02/01 12:31:12;;;;;;;7.73;7.00;;;;;;;5.75;89.84;99823.38;5059528;28;20781;-77
2022/02/01 12:33:43;;;;;;;8.10;7.40;;;;;;;6.10;88.45;99820.41;5059756;28;20174;-78
2022/02/01 12:36:10;;;;;;;6.80;6.20;;;;;;;5.75;88.65;99810.44;5078645;28;20487;-76
2022/02/01 12:38:36;;;;;;;7.60;6.90;;;;;;;5.99;88.37;99816.81;5079186;28;20464;-78
2022/02/01 12:41:16;;;;;;;7.07;6.37;;;;;;;6.07;87.69;99802.25;5079341;28;20817;-77
2022/02/01 12:45:47;;;;;;;6.40;5.90;;;;;;;6.26;87.63;99790.41;5079221;28;20470;-77
2022/02/01 12:46:51;;;;;;;5.90;5.33;;;;;;;6.13;88.05;99770.41;5079148;28;20423;-77
2022/02/01 12:49:16;;;;;;;5.83;5.23;;;;;;;6.07;88.38;99766.91;5079519;28;20519;-84
2022/02/01 12:51:43;;;;;;;4.90;4.50;;;;;;;5.93;89.02;99765.84;5079085;28;20506;-83
2022/02/01 12:54:26;;;;;;;5.03;4.60;;;;;;;6.45;87.73;99760.41;5079550;28;20318;-84